createdAt,value
2019-05-12T00:01:28.654Z,98537.00
2019-05-12T00:05:29.950Z,98551.00
2019-05-12T00:09:30.936Z,98549.00
2019-05-12T00:13:32.111Z,98559.00
2019-05-12T00:17:33.237Z,98571.00
2019-05-12T00:21:36.744Z,98572.00
2019-05-12T00:25:38.790Z,98573.00
2019-05-12T00:29:40.150Z,98582.00
2019-05-12T00:33:41.031Z,98588.00
2019-05-12T00:37:42.170Z,98599.00
2019-05-12T00:41:44.527Z,98593.00
2019-05-12T00:45:48.087Z,98593.00
2019-05-12T00:49:50.367Z,98599.00
2019-05-12T00:53:51.640Z,98602.00
2019-05-12T00:57:52.987Z,98605.00
2019-05-12T01:01:54.182Z,98616.00
2019-05-12T01:05:57.736Z,98631.00
2019-05-12T01:10:01.440Z,98640.00
2019-05-12T01:14:02.411Z,98648.00
2019-05-12T01:18:03.686Z,98659.00
2019-05-12T01:22:04.707Z,98658.00
2019-05-12T01:26:08.678Z,98654.00
2019-05-12T01:30:09.394Z,98659.00
2019-05-12T01:34:10.485Z,98665.00
2019-05-12T01:38:11.521Z,98668.00
2019-05-12T01:42:12.492Z,98675.00
2019-05-12T01:46:13.806Z,98680.00
2019-05-12T01:50:14.800Z,98679.00
2019-05-12T01:54:15.688Z,98694.00
2019-05-12T01:58:19.350Z,98692.00
2019-05-12T02:02:19.645Z,98690.00
2019-05-12T02:06:20.540Z,98705.00
2019-05-12T02:10:22.680Z,98708.00
2019-05-12T02:14:23.672Z,98717.00
2019-05-12T02:18:25.220Z,98719.00
2019-05-12T02:22:27.899Z,98730.00
2019-05-12T02:26:29.168Z,98734.00
2019-05-12T02:30:30.947Z,98737.00
2019-05-12T02:34:34.973Z,98736.00
2019-05-12T02:38:35.513Z,98742.00
2019-05-12T02:42:36.628Z,98748.00
2019-05-12T02:46:37.646Z,98758.00
2019-05-12T02:50:38.826Z,98763.00
2019-05-12T02:54:51.913Z,98764.00
2019-05-12T02:58:45.315Z,98770.00
2019-05-12T03:02:49.368Z,98757.00
2019-05-12T03:06:50.559Z,98763.00
2019-05-12T03:10:54.627Z,98772.00
2019-05-12T03:14:54.575Z,98763.00
2019-05-12T03:18:55.518Z,98770.00
2019-05-12T03:22:56.441Z,98779.00
2019-05-12T03:26:57.350Z,98783.00
2019-05-12T03:30:58.647Z,98795.00
2019-05-12T03:34:59.701Z,98804.00
2019-05-12T03:39:00.576Z,98811.00
2019-05-12T03:43:01.544Z,98817.00
2019-05-12T03:47:05.044Z,98823.00
2019-05-12T03:51:05.806Z,98834.00
2019-05-12T03:55:26.209Z,98842.00
2019-05-12T03:59:09.828Z,98853.00
2019-05-12T04:03:10.730Z,98856.00
2019-05-12T04:07:15.020Z,98857.00
2019-05-12T04:11:14.793Z,98868.00
2019-05-12T04:15:15.964Z,98873.00
2019-05-12T04:19:16.960Z,98885.00
2019-05-12T04:23:17.809Z,98880.00
2019-05-12T04:27:18.780Z,98893.00
2019-05-12T04:31:19.765Z,98893.00
2019-05-12T04:35:20.681Z,98901.00
2019-05-12T04:39:25.085Z,98906.00
2019-05-12T04:43:25.477Z,98915.00
2019-05-12T04:47:26.916Z,98923.00
2019-05-12T04:51:27.804Z,98934.00
2019-05-12T04:55:28.659Z,98935.00
2019-05-12T04:59:29.555Z,98935.00
2019-05-12T05:03:30.424Z,98948.00
2019-05-12T05:07:31.409Z,98961.00
2019-05-12T05:11:34.511Z,98963.00
2019-05-12T05:15:35.562Z,98963.00
2019-05-12T05:19:36.659Z,98977.00
2019-05-12T05:23:37.522Z,98993.00
2019-05-12T05:27:38.435Z,99001.00
2019-05-12T05:31:39.303Z,99006.00
2019-05-12T05:35:40.302Z,99017.00
2019-05-12T05:39:48.032Z,99023.00
2019-05-12T05:43:48.365Z,99036.00
2019-05-12T05:47:48.930Z,99055.00
2019-05-12T05:51:54.360Z,99050.00
2019-05-12T05:55:58.656Z,99071.00
2019-05-12T05:59:55.303Z,99078.00
2019-05-12T06:03:58.421Z,99080.00
2019-05-12T06:07:59.038Z,99069.00
2019-05-12T06:12:05.094Z,99082.00
2019-05-12T06:16:04.428Z,99086.00
2019-05-12T06:20:05.720Z,99090.00
2019-05-12T06:24:08.910Z,99098.00
2019-05-12T06:28:09.405Z,99107.00
2019-05-12T06:32:11.015Z,99108.00
2019-05-12T06:36:15.668Z,99089.00
2019-05-12T06:40:15.154Z,99107.00
2019-05-12T06:44:19.454Z,99120.00
2019-05-12T06:48:19.405Z,99123.00
2019-05-12T06:52:23.693Z,99124.00
2019-05-12T06:56:24.540Z,99128.00
2019-05-12T07:00:30.933Z,99141.00
2019-05-12T07:04:28.222Z,99138.00
2019-05-12T07:08:32.815Z,99143.00
2019-05-12T07:12:36.123Z,99153.00
2019-05-12T07:16:34.762Z,99151.00
2019-05-12T07:20:39.082Z,99160.00
2019-05-12T07:24:40.979Z,99168.00
2019-05-12T07:28:43.246Z,99164.00
2019-05-12T07:32:44.174Z,99174.00
2019-05-12T07:36:46.162Z,99169.00
2019-05-12T07:40:48.074Z,99166.00
2019-05-12T07:44:50.157Z,99184.00
2019-05-12T07:48:51.123Z,99191.00
2019-05-12T07:52:54.204Z,99201.00
2019-05-12T07:56:54.868Z,99199.00
2019-05-12T08:01:02.609Z,99200.00
2019-05-12T08:04:58.732Z,99206.00
2019-05-12T08:08:59.609Z,99198.00
2019-05-12T08:13:00.969Z,99210.00
2019-05-12T08:17:10.485Z,99210.00
2019-05-12T08:21:04.668Z,99198.00
2019-05-12T08:25:06.056Z,99222.00
2019-05-12T08:29:10.388Z,99228.00
2019-05-12T08:33:10.272Z,99236.00
2019-05-12T08:37:13.816Z,99243.00
2019-05-12T08:41:14.671Z,99249.00
2019-05-12T08:45:25.732Z,99251.00
2019-05-12T08:49:18.519Z,99246.00
2019-05-12T08:53:20.816Z,99248.00
2019-05-12T08:57:24.131Z,99245.00
2019-05-12T09:01:26.560Z,99251.00
2019-05-12T09:05:33.574Z,99249.00
2019-05-12T09:09:33.613Z,99257.00
2019-05-12T09:13:34.452Z,99261.00
2019-05-12T09:17:37.470Z,99267.00
2019-05-12T09:21:38.963Z,99256.00
2019-05-12T09:25:45.098Z,99266.00
2019-05-12T09:29:43.673Z,99270.00
2019-05-12T09:33:44.708Z,99282.00
2019-05-12T09:37:45.686Z,99284.00
2019-05-12T09:41:52.105Z,99260.00
2019-05-12T09:45:54.015Z,99266.00
2019-05-12T09:49:53.564Z,99279.00
2019-05-12T09:53:55.480Z,99279.00
2019-05-12T09:57:56.578Z,99275.00
2019-05-12T10:01:57.456Z,99281.00
2019-05-12T10:05:58.445Z,99284.00
2019-05-12T10:09:59.897Z,99287.00
2019-05-12T10:14:06.502Z,99284.00
2019-05-12T10:18:11.038Z,99289.00
2019-05-12T10:22:07.119Z,99291.00
2019-05-12T10:26:11.589Z,99286.00
2019-05-12T10:30:17.043Z,99292.00
2019-05-12T10:34:18.347Z,99295.00
2019-05-12T10:38:19.258Z,99295.00
2019-05-12T10:42:20.158Z,99291.00
2019-05-12T10:46:24.469Z,99289.00
2019-05-12T10:50:24.021Z,99310.00
2019-05-12T10:54:25.005Z,99311.00
2019-05-12T10:58:26.406Z,99316.00
2019-05-12T11:02:30.481Z,99287.00
2019-05-12T11:06:30.150Z,99311.00
2019-05-12T11:10:31.242Z,99308.00
2019-05-12T11:14:34.205Z,99293.00
2019-05-12T11:18:35.389Z,99317.00
2019-05-12T11:22:36.332Z,99309.00
2019-05-12T11:26:37.240Z,99317.00
2019-05-12T11:30:38.331Z,99310.00
2019-05-12T11:34:39.241Z,99312.00
2019-05-12T11:38:44.267Z,99314.00
2019-05-12T11:42:46.824Z,99317.00
2019-05-12T11:46:47.627Z,99318.00
2019-05-12T11:50:51.313Z,99316.00
2019-05-12T11:54:53.760Z,99315.00
2019-05-12T11:58:54.809Z,99322.00
2019-05-12T12:02:55.648Z,99326.00
2019-05-12T12:06:56.652Z,99328.00
2019-05-12T12:10:57.609Z,99338.00
2019-05-12T12:14:58.577Z,99321.00
2019-05-12T12:19:02.500Z,99338.00
2019-05-12T12:23:06.522Z,99341.00
2019-05-12T12:27:05.524Z,99343.00
2019-05-12T12:31:07.861Z,99361.00
2019-05-12T12:35:12.977Z,99362.00
2019-05-12T12:39:13.153Z,99361.00
2019-05-12T12:43:14.211Z,99362.00
2019-05-12T12:47:15.099Z,99366.00
2019-05-12T12:51:17.529Z,99356.00
2019-05-12T12:55:18.860Z,99356.00
2019-05-12T12:59:19.845Z,99360.00
2019-05-12T13:03:27.777Z,99360.00
2019-05-12T13:07:24.122Z,99362.00
2019-05-12T13:11:33.061Z,99357.00
2019-05-12T13:15:28.049Z,99362.00
2019-05-12T13:19:29.041Z,99368.00
2019-05-12T13:23:37.860Z,99370.00
2019-05-12T13:27:36.685Z,99368.00
2019-05-12T13:31:36.219Z,99361.00
2019-05-12T13:35:37.085Z,99376.00
2019-05-12T13:39:38.073Z,99369.00
2019-05-12T13:43:38.992Z,99367.00
2019-05-12T13:47:40.241Z,99363.00
2019-05-12T13:51:43.186Z,99361.00
2019-05-12T13:55:45.482Z,99372.00
2019-05-12T13:59:47.032Z,99362.00
2019-05-12T14:03:50.612Z,99374.00
2019-05-12T14:07:55.663Z,99375.00
2019-05-12T14:11:53.941Z,99375.00
2019-05-12T14:15:55.101Z,99382.00
2019-05-12T14:19:55.976Z,99371.00
2019-05-12T14:23:56.868Z,99370.00
2019-05-12T14:27:59.370Z,99378.00
2019-05-12T14:32:03.100Z,99368.00
2019-05-12T14:36:04.058Z,99372.00
2019-05-12T14:40:05.671Z,99375.00
2019-05-12T14:44:06.745Z,99373.00
2019-05-12T14:48:09.432Z,99378.00
2019-05-12T14:52:10.540Z,99387.00
2019-05-12T14:56:13.904Z,99381.00
2019-05-12T15:00:21.202Z,99394.00
2019-05-12T15:04:19.409Z,99396.00
2019-05-12T15:08:21.370Z,99392.00
2019-05-12T15:12:24.289Z,99404.00
2019-05-12T15:16:25.334Z,99394.00
2019-05-12T15:20:26.279Z,99394.00
2019-05-12T15:24:27.314Z,99411.00
2019-05-12T15:28:28.212Z,99408.00
2019-05-12T15:32:29.174Z,99400.00
2019-05-12T15:36:31.004Z,99404.00
2019-05-12T15:40:32.008Z,99414.00
2019-05-12T15:44:36.260Z,99414.00
2019-05-12T15:48:35.784Z,99413.00
2019-05-12T15:52:42.179Z,99410.00
2019-05-12T15:56:40.513Z,99415.00
2019-05-12T16:00:43.345Z,99420.00
2019-05-12T16:04:48.229Z,99422.00
2019-05-12T16:08:47.114Z,99410.00
2019-05-12T16:12:48.129Z,99429.00
2019-05-12T16:16:49.147Z,99424.00
2019-05-12T16:20:50.075Z,99425.00
2019-05-12T16:24:53.114Z,99428.00
2019-05-12T16:29:02.360Z,99433.00
2019-05-12T16:32:56.689Z,99430.00
2019-05-12T16:36:57.687Z,99444.00
2019-05-12T16:40:58.575Z,99440.00
2019-05-12T16:45:06.109Z,99435.00
2019-05-12T16:49:03.349Z,99454.00
2019-05-12T16:53:04.464Z,99448.00
2019-05-12T16:57:10.377Z,99462.00
2019-05-12T17:01:08.304Z,99465.00
2019-05-12T17:05:18.158Z,99465.00
2019-05-12T17:09:13.495Z,99469.00
2019-05-12T17:13:16.062Z,99470.00
2019-05-12T17:17:21.017Z,99462.00
2019-05-12T17:21:20.213Z,99469.00
2019-05-12T17:25:21.131Z,99470.00
2019-05-12T17:29:24.219Z,99473.00
2019-05-12T17:33:27.516Z,99487.00
2019-05-12T17:37:31.475Z,99492.00
2019-05-12T17:41:31.601Z,99501.00
2019-05-12T17:45:33.530Z,99494.00
2019-05-12T17:49:39.025Z,99488.00
2019-05-12T17:53:40.365Z,99495.00
2019-05-12T17:57:43.838Z,99497.00
2019-05-12T18:01:44.686Z,99495.00
2019-05-12T18:05:47.990Z,99496.00
2019-05-12T18:09:50.435Z,99510.00
2019-05-12T18:14:01.691Z,99508.00
2019-05-12T18:17:54.554Z,99514.00
2019-05-12T18:22:02.952Z,99517.00
2019-05-12T18:26:03.073Z,99523.00
2019-05-12T18:30:04.475Z,99523.00
2019-05-12T18:34:05.590Z,99528.00
2019-05-12T18:38:08.072Z,99534.00
2019-05-12T18:42:09.598Z,99541.00
2019-05-12T18:46:10.616Z,99547.00
2019-05-12T18:50:14.095Z,99547.00
2019-05-12T18:54:15.169Z,99553.00
2019-05-12T18:58:21.644Z,99560.00
2019-05-12T19:02:23.391Z,99566.00
2019-05-12T19:06:23.357Z,99567.00
2019-05-12T19:10:24.665Z,99571.00
2019-05-12T19:14:34.963Z,99588.00
2019-05-12T19:18:32.506Z,99594.00
2019-05-12T19:22:33.848Z,99599.00
2019-05-12T19:26:38.422Z,99604.00
2019-05-12T19:30:39.286Z,99603.00
2019-05-12T19:34:40.204Z,99612.00
2019-05-12T19:38:41.183Z,99617.00
2019-05-12T19:42:42.908Z,99616.00
2019-05-12T19:46:46.122Z,99625.00
2019-05-12T19:50:52.864Z,99638.00
2019-05-12T19:54:49.697Z,99636.00
2019-05-12T19:58:50.637Z,99630.00
2019-05-12T20:02:53.311Z,99636.00
2019-05-12T20:06:54.612Z,99636.00
2019-05-12T20:10:55.556Z,99642.00
2019-05-12T20:14:57.422Z,99650.00
2019-05-12T20:18:59.292Z,99647.00
2019-05-12T20:23:00.171Z,99653.00
2019-05-12T20:27:01.204Z,99653.00
2019-05-12T20:31:05.830Z,99666.00
2019-05-12T20:35:05.886Z,99661.00
2019-05-12T20:39:09.846Z,99657.00
2019-05-12T20:43:12.257Z,99657.00
2019-05-12T20:47:13.972Z,99671.00
2019-05-12T20:51:20.000Z,99665.00
2019-05-12T20:55:18.056Z,99664.00
2019-05-12T20:59:22.299Z,99668.00
2019-05-12T21:03:24.123Z,99676.00
2019-05-12T21:07:26.920Z,99682.00
2019-05-12T21:11:35.548Z,99682.00
2019-05-12T21:15:42.370Z,99681.00
2019-05-12T21:19:41.496Z,99677.00
2019-05-12T21:23:45.605Z,99681.00
2019-05-12T21:27:47.803Z,99683.00
2019-05-12T21:31:48.136Z,99680.00
2019-05-12T21:35:49.007Z,99683.00
2019-05-12T21:39:51.087Z,99684.00
2019-05-12T21:43:54.295Z,99694.00
2019-05-12T21:47:56.805Z,99694.00
2019-05-12T21:52:02.976Z,99694.00
2019-05-12T21:56:03.971Z,99693.00
2019-05-12T22:00:10.768Z,99703.00
2019-05-12T22:04:11.504Z,99694.00
2019-05-12T22:08:20.749Z,99703.00
2019-05-12T22:12:17.276Z,99701.00
2019-05-12T22:16:18.159Z,99702.00
2019-05-12T22:20:19.907Z,99703.00
2019-05-12T22:24:27.502Z,99706.00
2019-05-12T22:28:24.048Z,99710.00
2019-05-12T22:32:29.409Z,99705.00
2019-05-12T22:36:30.110Z,99714.00
2019-05-12T22:40:30.842Z,99718.00
2019-05-12T22:44:31.761Z,99722.00
2019-05-12T22:48:37.240Z,99725.00
2019-05-12T22:52:39.073Z,99727.00
2019-05-12T22:56:38.250Z,99725.00
2019-05-12T23:00:39.115Z,99721.00
2019-05-12T23:04:40.507Z,99729.00
2019-05-12T23:08:47.119Z,99727.00
2019-05-12T23:12:44.741Z,99723.00
2019-05-12T23:16:45.873Z,99719.00
2019-05-12T23:20:46.726Z,99733.00
2019-05-12T23:24:47.633Z,99735.00
2019-05-12T23:28:50.357Z,99726.00
2019-05-12T23:32:52.935Z,99730.00
2019-05-12T23:36:56.860Z,99741.00
2019-05-12T23:40:56.825Z,99738.00
2019-05-12T23:44:57.775Z,99738.00
2019-05-12T23:48:58.664Z,99738.00
2019-05-12T23:52:59.636Z,99747.00
2019-05-12T23:57:00.729Z,99740.00
